sensor_id;sensor_type;location;lat;lon;timestamp;temperature;humidity
22337;DHT22;14992;50.844;4.418;2023-04-03T00:01:40;5.90;99.90
22337;DHT22;14992;50.844;4.418;2023-04-03T00:04:09;5.90;99.90
22337;DHT22;14992;50.844;4.418;2023-04-03T00:06:38;5.80;99.90
22337;DHT22;14992;50.844;4.418;2023-04-03T00:09:07;5.80;99.90
22337;DHT22;14992;50.844;4.418;2023-04-03T00:11:38;5.90;99.90
22337;DHT22;14992;50.844;4.418;2023-04-03T00:14:09;5.80;99.90
22337;DHT22;14992;50.844;4.418;2023-04-03T00:16:39;5.70;99.90
22337;DHT22;14992;50.844;4.418;2023-04-03T00:19:08;5.80;99.90
22337;DHT22;14992;50.844;4.418;2023-04-03T00:21:39;5.70;99.90
22337;DHT22;14992;50.844;4.418;2023-04-03T00:24:08;5.70;99.90
22337;DHT22;14992;50.844;4.418;2023-04-03T00:26:38;5.60;99.90
22337;DHT22;14992;50.844;4.418;2023-04-03T00:29:07;5.60;99.90
22337;DHT22;14992;50.844;4.418;2023-04-03T00:31:36;5.50;99.90
22337;DHT22;14992;50.844;4.418;2023-04-03T00:34:05;5.40;99.90
22337;DHT22;14992;50.844;4.418;2023-04-03T00:36:34;5.50;99.90
22337;DHT22;14992;50.844;4.418;2023-04-03T00:39:03;5.50;99.90
22337;DHT22;14992;50.844;4.418;2023-04-03T00:41:34;5.50;99.90
22337;DHT22;14992;50.844;4.418;2023-04-03T00:47:00;5.60;99.90
22337;DHT22;14992;50.844;4.418;2023-04-03T00:49:30;5.50;99.90
22337;DHT22;14992;50.844;4.418;2023-04-03T00:52:01;5.50;99.90
22337;DHT22;14992;50.844;4.418;2023-04-03T00:54:30;5.40;99.90
22337;DHT22;14992;50.844;4.418;2023-04-03T00:56:59;5.30;99.90
22337;DHT22;14992;50.844;4.418;2023-04-03T00:59:31;5.30;99.90
22337;DHT22;14992;50.844;4.418;2023-04-03T01:02:03;5.40;99.90
22337;DHT22;14992;50.844;4.418;2023-04-03T01:04:34;5.40;99.90
22337;DHT22;14992;50.844;4.418;2023-04-03T01:07:06;5.30;99.90
22337;DHT22;14992;50.844;4.418;2023-04-03T01:09:37;5.30;99.90
22337;DHT22;14992;50.844;4.418;2023-04-03T01:12:14;5.20;99.90
22337;DHT22;14992;50.844;4.418;2023-04-03T01:14:45;5.10;99.90
22337;DHT22;14992;50.844;4.418;2023-04-03T01:17:29;5.10;99.90
22337;DHT22;14992;50.844;4.418;2023-04-03T01:22:58;5.00;99.90
22337;DHT22;14992;50.844;4.418;2023-04-03T01:25:27;5.00;99.90
22337;DHT22;14992;50.844;4.418;2023-04-03T01:27:58;5.00;99.90
22337;DHT22;14992;50.844;4.418;2023-04-03T01:30:32;5.00;99.90
22337;DHT22;14992;50.844;4.418;2023-04-03T01:33:03;5.10;99.90
22337;DHT22;14992;50.844;4.418;2023-04-03T01:35:32;5.00;99.90
22337;DHT22;14992;50.844;4.418;2023-04-03T01:38:01;5.00;99.90
22337;DHT22;14992;50.844;4.418;2023-04-03T01:40:30;4.90;99.90
22337;DHT22;14992;50.844;4.418;2023-04-03T01:42:59;5.00;99.90
22337;DHT22;14992;50.844;4.418;2023-04-03T01:45:28;5.00;99.90
22337;DHT22;14992;50.844;4.418;2023-04-03T01:47:57;5.00;99.90
22337;DHT22;14992;50.844;4.418;2023-04-03T01:50:27;4.90;99.90
22337;DHT22;14992;50.844;4.418;2023-04-03T01:52:56;4.80;99.90
22337;DHT22;14992;50.844;4.418;2023-04-03T01:55:26;4.80;99.90
22337;DHT22;14992;50.844;4.418;2023-04-03T01:57:55;4.90;99.90
22337;DHT22;14992;50.844;4.418;2023-04-03T02:00:24;4.90;99.90
22337;DHT22;14992;50.844;4.418;2023-04-03T02:02:54;4.80;99.90
22337;DHT22;14992;50.844;4.418;2023-04-03T02:05:23;4.80;99.90
22337;DHT22;14992;50.844;4.418;2023-04-03T02:07:53;4.80;99.90
22337;DHT22;14992;50.844;4.418;2023-04-03T02:10:22;4.80;99.90
22337;DHT22;14992;50.844;4.418;2023-04-03T02:12:51;4.90;99.90
22337;DHT22;14992;50.844;4.418;2023-04-03T02:15:20;4.90;99.90
22337;DHT22;14992;50.844;4.418;2023-04-03T02:17:49;4.90;99.90
22337;DHT22;14992;50.844;4.418;2023-04-03T02:20:19;4.90;99.90
22337;DHT22;14992;50.844;4.418;2023-04-03T02:22:48;4.80;99.90
22337;DHT22;14992;50.844;4.418;2023-04-03T02:25:19;4.90;99.90
22337;DHT22;14992;50.844;4.418;2023-04-03T02:27:48;4.80;99.90
22337;DHT22;14992;50.844;4.418;2023-04-03T02:30:17;4.80;99.90
22337;DHT22;14992;50.844;4.418;2023-04-03T02:32:46;4.70;99.90
22337;DHT22;14992;50.844;4.418;2023-04-03T02:35:15;4.70;99.90
22337;DHT22;14992;50.844;4.418;2023-04-03T02:37:44;4.80;99.90
22337;DHT22;14992;50.844;4.418;2023-04-03T02:40:14;4.80;99.90
22337;DHT22;14992;50.844;4.418;2023-04-03T02:42:44;4.80;99.90
22337;DHT22;14992;50.844;4.418;2023-04-03T02:45:13;4.70;99.90
22337;DHT22;14992;50.844;4.418;2023-04-03T02:47:42;4.70;99.90
22337;DHT22;14992;50.844;4.418;2023-04-03T02:50:11;4.60;99.90
22337;DHT22;14992;50.844;4.418;2023-04-03T02:52:40;4.60;99.90
22337;DHT22;14992;50.844;4.418;2023-04-03T02:55:14;4.60;99.90
22337;DHT22;14992;50.844;4.418;2023-04-03T02:57:46;4.50;99.90
22337;DHT22;14992;50.844;4.418;2023-04-03T03:00:15;4.50;99.90
22337;DHT22;14992;50.844;4.418;2023-04-03T03:02:44;4.40;99.90
22337;DHT22;14992;50.844;4.418;2023-04-03T03:05:13;4.40;99.90
22337;DHT22;14992;50.844;4.418;2023-04-03T03:07:42;4.30;99.90
22337;DHT22;14992;50.844;4.418;2023-04-03T03:10:11;4.40;99.90
22337;DHT22;14992;50.844;4.418;2023-04-03T03:12:40;4.40;99.90
22337;DHT22;14992;50.844;4.418;2023-04-03T03:15:11;4.40;99.90
22337;DHT22;14992;50.844;4.418;2023-04-03T03:17:40;4.40;99.90
22337;DHT22;14992;50.844;4.418;2023-04-03T03:20:10;4.40;99.90
22337;DHT22;14992;50.844;4.418;2023-04-03T03:22:41;4.30;99.90
22337;DHT22;14992;50.844;4.418;2023-04-03T03:25:10;4.30;99.90
22337;DHT22;14992;50.844;4.418;2023-04-03T03:27:39;4.20;99.90
22337;DHT22;14992;50.844;4.418;2023-04-03T03:30:10;4.20;99.90
22337;DHT22;14992;50.844;4.418;2023-04-03T03:32:39;4.20;99.90
22337;DHT22;14992;50.844;4.418;2023-04-03T03:35:08;4.20;99.90
22337;DHT22;14992;50.844;4.418;2023-04-03T03:37:37;4.20;99.90
22337;DHT22;14992;50.844;4.418;2023-04-03T03:40:08;4.30;99.90
22337;DHT22;14992;50.844;4.418;2023-04-03T03:42:37;4.30;99.90
22337;DHT22;14992;50.844;4.418;2023-04-03T03:45:07;4.30;99.90
22337;DHT22;14992;50.844;4.418;2023-04-03T03:47:38;4.40;99.90
22337;DHT22;14992;50.844;4.418;2023-04-03T03:50:08;4.40;99.90
22337;DHT22;14992;50.844;4.418;2023-04-03T03:52:38;4.50;99.90
22337;DHT22;14992;50.844;4.418;2023-04-03T03:55:08;4.60;99.90
22337;DHT22;14992;50.844;4.418;2023-04-03T03:57:37;4.60;99.90
22337;DHT22;14992;50.844;4.418;2023-04-03T04:00:07;4.60;99.90
22337;DHT22;14992;50.844;4.418;2023-04-03T04:02:43;4.50;99.90
22337;DHT22;14992;50.844;4.418;2023-04-03T04:05:16;4.40;99.90
22337;DHT22;14992;50.844;4.418;2023-04-03T04:07:45;4.40;99.90
22337;DHT22;14992;50.844;4.418;2023-04-03T04:10:14;4.40;99.90
22337;DHT22;14992;50.844;4.418;2023-04-03T04:12:44;4.40;99.90
22337;DHT22;14992;50.844;4.418;2023-04-03T04:15:14;4.40;99.90
22337;DHT22;14992;50.844;4.418;2023-04-03T04:17:44;4.30;99.90
22337;DHT22;14992;50.844;4.418;2023-04-03T04:20:14;4.50;99.90
22337;DHT22;14992;50.844;4.418;2023-04-03T04:22:43;4.60;99.90
22337;DHT22;14992;50.844;4.418;2023-04-03T04:25:12;4.60;99.90
22337;DHT22;14992;50.844;4.418;2023-04-03T04:27:41;4.70;99.90
22337;DHT22;14992;50.844;4.418;2023-04-03T04:30:14;4.70;99.90
22337;DHT22;14992;50.844;4.418;2023-04-03T04:32:46;4.50;99.90
22337;DHT22;14992;50.844;4.418;2023-04-03T04:35:15;4.40;99.90
22337;DHT22;14992;50.844;4.418;2023-04-03T04:37:47;4.40;99.90
22337;DHT22;14992;50.844;4.418;2023-04-03T04:40:17;4.40;99.90
22337;DHT22;14992;50.844;4.418;2023-04-03T04:42:46;4.30;99.90
22337;DHT22;14992;50.844;4.418;2023-04-03T04:45:16;4.30;99.90
22337;DHT22;14992;50.844;4.418;2023-04-03T04:47:48;4.30;99.90
22337;DHT22;14992;50.844;4.418;2023-04-03T04:50:19;4.30;99.90
22337;DHT22;14992;50.844;4.418;2023-04-03T04:52:48;4.30;99.90
22337;DHT22;14992;50.844;4.418;2023-04-03T04:55:17;4.20;99.90
22337;DHT22;14992;50.844;4.418;2023-04-03T04:57:46;4.20;99.90
22337;DHT22;14992;50.844;4.418;2023-04-03T05:00:17;4.20;99.90
22337;DHT22;14992;50.844;4.418;2023-04-03T05:02:47;4.30;99.90
22337;DHT22;14992;50.844;4.418;2023-04-03T05:05:19;4.40;99.90
22337;DHT22;14992;50.844;4.418;2023-04-03T05:07:48;4.50;99.90
22337;DHT22;14992;50.844;4.418;2023-04-03T05:10:17;4.50;99.90
22337;DHT22;14992;50.844;4.418;2023-04-03T05:12:46;4.60;99.90
22337;DHT22;14992;50.844;4.418;2023-04-03T05:15:17;4.50;99.90
22337;DHT22;14992;50.844;4.418;2023-04-03T05:17:50;4.60;99.90
22337;DHT22;14992;50.844;4.418;2023-04-03T05:20:19;4.60;99.90
22337;DHT22;14992;50.844;4.418;2023-04-03T05:22:49;4.50;99.90
22337;DHT22;14992;50.844;4.418;2023-04-03T05:25:18;4.50;99.90
22337;DHT22;14992;50.844;4.418;2023-04-03T05:27:47;4.50;99.90
22337;DHT22;14992;50.844;4.418;2023-04-03T05:30:17;4.60;99.90
22337;DHT22;14992;50.844;4.418;2023-04-03T05:32:47;4.70;99.90
22337;DHT22;14992;50.844;4.418;2023-04-03T05:35:22;4.70;99.90
22337;DHT22;14992;50.844;4.418;2023-04-03T05:37:54;4.80;99.90
22337;DHT22;14992;50.844;4.418;2023-04-03T05:40:23;4.80;99.90
22337;DHT22;14992;50.844;4.418;2023-04-03T05:42:55;4.80;99.90
22337;DHT22;14992;50.844;4.418;2023-04-03T05:45:27;4.80;99.90
22337;DHT22;14992;50.844;4.418;2023-04-03T05:47:58;4.70;99.90
22337;DHT22;14992;50.844;4.418;2023-04-03T05:50:29;4.70;99.90
22337;DHT22;14992;50.844;4.418;2023-04-03T05:52:59;4.80;99.90
22337;DHT22;14992;50.844;4.418;2023-04-03T05:55:31;4.80;99.90
22337;DHT22;14992;50.844;4.418;2023-04-03T05:58:02;4.70;99.90
22337;DHT22;14992;50.844;4.418;2023-04-03T06:00:31;4.60;99.90
22337;DHT22;14992;50.844;4.418;2023-04-03T06:03:02;4.60;99.90
22337;DHT22;14992;50.844;4.418;2023-04-03T06:05:32;4.60;99.90
22337;DHT22;14992;50.844;4.418;2023-04-03T06:08:03;4.60;99.90
22337;DHT22;14992;50.844;4.418;2023-04-03T06:10:32;4.60;99.90
22337;DHT22;14992;50.844;4.418;2023-04-03T06:13:02;4.60;99.90
22337;DHT22;14992;50.844;4.418;2023-04-03T06:15:31;4.70;99.90
22337;DHT22;14992;50.844;4.418;2023-04-03T06:18:00;4.70;99.90
22337;DHT22;14992;50.844;4.418;2023-04-03T06:20:30;4.70;99.90
22337;DHT22;14992;50.844;4.418;2023-04-03T06:23:00;4.80;99.90
22337;DHT22;14992;50.844;4.418;2023-04-03T06:25:29;4.90;99.90
22337;DHT22;14992;50.844;4.418;2023-04-03T06:27:59;4.90;99.90
22337;DHT22;14992;50.844;4.418;2023-04-03T06:30:28;5.00;99.90
22337;DHT22;14992;50.844;4.418;2023-04-03T06:32:57;5.10;99.90
22337;DHT22;14992;50.844;4.418;2023-04-03T06:35:27;5.10;99.90
22337;DHT22;14992;50.844;4.418;2023-04-03T06:37:57;5.10;99.90
22337;DHT22;14992;50.844;4.418;2023-04-03T06:40:27;5.20;99.90
22337;DHT22;14992;50.844;4.418;2023-04-03T06:42:57;5.30;99.90
22337;DHT22;14992;50.844;4.418;2023-04-03T06:45:26;5.40;99.90
22337;DHT22;14992;50.844;4.418;2023-04-03T06:47:55;5.50;99.90
22337;DHT22;14992;50.844;4.418;2023-04-03T06:50:24;5.60;99.90
22337;DHT22;14992;50.844;4.418;2023-04-03T06:52:53;5.40;99.90
22337;DHT22;14992;50.844;4.418;2023-04-03T06:55:22;5.30;99.90
22337;DHT22;14992;50.844;4.418;2023-04-03T06:57:52;5.10;99.90
22337;DHT22;14992;50.844;4.418;2023-04-03T07:00:21;5.10;99.90
22337;DHT22;14992;50.844;4.418;2023-04-03T07:02:50;5.20;99.90
22337;DHT22;14992;50.844;4.418;2023-04-03T07:05:20;5.40;99.90
22337;DHT22;14992;50.844;4.418;2023-04-03T07:07:49;5.30;99.90
22337;DHT22;14992;50.844;4.418;2023-04-03T07:10:19;5.30;99.90
22337;DHT22;14992;50.844;4.418;2023-04-03T07:12:47;5.40;99.90
22337;DHT22;14992;50.844;4.418;2023-04-03T07:15:18;5.40;99.90
22337;DHT22;14992;50.844;4.418;2023-04-03T07:17:47;5.30;99.90
22337;DHT22;14992;50.844;4.418;2023-04-03T07:20:16;5.30;99.90
22337;DHT22;14992;50.844;4.418;2023-04-03T07:22:45;5.30;99.90
22337;DHT22;14992;50.844;4.418;2023-04-03T07:25:13;5.40;99.90
22337;DHT22;14992;50.844;4.418;2023-04-03T07:27:43;5.40;99.90
22337;DHT22;14992;50.844;4.418;2023-04-03T07:30:13;5.40;99.90
22337;DHT22;14992;50.844;4.418;2023-04-03T07:32:44;5.60;99.90
22337;DHT22;14992;50.844;4.418;2023-04-03T07:35:13;5.50;99.90
22337;DHT22;14992;50.844;4.418;2023-04-03T07:37:42;5.50;99.90
22337;DHT22;14992;50.844;4.418;2023-04-03T07:40:12;5.40;99.90
22337;DHT22;14992;50.844;4.418;2023-04-03T07:42:41;5.40;99.90
22337;DHT22;14992;50.844;4.418;2023-04-03T07:45:10;5.40;99.90
22337;DHT22;14992;50.844;4.418;2023-04-03T07:47:39;5.50;99.90
22337;DHT22;14992;50.844;4.418;2023-04-03T07:50:10;5.70;99.90
22337;DHT22;14992;50.844;4.418;2023-04-03T07:52:40;5.90;99.90
22337;DHT22;14992;50.844;4.418;2023-04-03T07:55:09;5.90;99.90
22337;DHT22;14992;50.844;4.418;2023-04-03T07:57:38;6.10;99.90
22337;DHT22;14992;50.844;4.418;2023-04-03T08:00:08;6.00;99.90
22337;DHT22;14992;50.844;4.418;2023-04-03T08:02:41;6.00;99.90
22337;DHT22;14992;50.844;4.418;2023-04-03T08:05:11;6.00;99.90
22337;DHT22;14992;50.844;4.418;2023-04-03T08:07:40;6.10;99.90
22337;DHT22;14992;50.844;4.418;2023-04-03T08:10:10;6.30;99.90
22337;DHT22;14992;50.844;4.418;2023-04-03T08:12:39;6.50;99.90
22337;DHT22;14992;50.844;4.418;2023-04-03T08:15:09;6.70;99.90
22337;DHT22;14992;50.844;4.418;2023-04-03T08:17:38;6.80;99.90
22337;DHT22;14992;50.844;4.418;2023-04-03T08:20:07;6.80;99.90
22337;DHT22;14992;50.844;4.418;2023-04-03T08:22:38;6.80;99.90
22337;DHT22;14992;50.844;4.418;2023-04-03T08:25:07;6.70;99.90
22337;DHT22;14992;50.844;4.418;2023-04-03T08:27:36;6.60;99.90
22337;DHT22;14992;50.844;4.418;2023-04-03T08:30:07;6.60;99.90
22337;DHT22;14992;50.844;4.418;2023-04-03T08:32:36;6.80;99.90
22337;DHT22;14992;50.844;4.418;2023-04-03T08:35:05;7.00;99.90
22337;DHT22;14992;50.844;4.418;2023-04-03T08:37:35;6.90;99.90
22337;DHT22;14992;50.844;4.418;2023-04-03T08:40:11;6.60;99.90
22337;DHT22;14992;50.844;4.418;2023-04-03T08:42:48;6.70;99.90
22337;DHT22;14992;50.844;4.418;2023-04-03T08:45:20;6.70;99.90
22337;DHT22;14992;50.844;4.418;2023-04-03T08:47:55;6.70;99.90
22337;DHT22;14992;50.844;4.418;2023-04-03T08:50:31;6.80;99.90
22337;DHT22;14992;50.844;4.418;2023-04-03T08:53:03;6.80;99.90
22337;DHT22;14992;50.844;4.418;2023-04-03T08:55:40;6.80;99.90
22337;DHT22;14992;50.844;4.418;2023-04-03T08:58:12;6.90;99.90
22337;DHT22;14992;50.844;4.418;2023-04-03T09:00:45;7.00;99.90
22337;DHT22;14992;50.844;4.418;2023-04-03T09:03:17;7.00;99.90
22337;DHT22;14992;50.844;4.418;2023-04-03T09:05:49;7.10;99.90
22337;DHT22;14992;50.844;4.418;2023-04-03T09:08:23;7.10;99.90
22337;DHT22;14992;50.844;4.418;2023-04-03T09:11:02;7.10;99.90
22337;DHT22;14992;50.844;4.418;2023-04-03T09:13:39;7.30;99.90
22337;DHT22;14992;50.844;4.418;2023-04-03T09:16:21;7.50;99.90
22337;DHT22;14992;50.844;4.418;2023-04-03T09:18:59;7.50;99.90
22337;DHT22;14992;50.844;4.418;2023-04-03T09:21:34;7.50;99.90
22337;DHT22;14992;50.844;4.418;2023-04-03T09:24:06;7.50;99.90
22337;DHT22;14992;50.844;4.418;2023-04-03T09:26:42;7.50;99.90
22337;DHT22;14992;50.844;4.418;2023-04-03T09:29:17;7.80;99.90
22337;DHT22;14992;50.844;4.418;2023-04-03T09:31:49;8.00;99.90
22337;DHT22;14992;50.844;4.418;2023-04-03T09:34:22;7.90;99.90
22337;DHT22;14992;50.844;4.418;2023-04-03T09:36:53;8.00;99.90
22337;DHT22;14992;50.844;4.418;2023-04-03T09:39:24;7.90;99.90
22337;DHT22;14992;50.844;4.418;2023-04-03T09:42:00;7.80;99.90
22337;DHT22;14992;50.844;4.418;2023-04-03T09:44:31;8.00;99.90
22337;DHT22;14992;50.844;4.418;2023-04-03T09:47:18;8.00;99.90
22337;DHT22;14992;50.844;4.418;2023-04-03T09:49:48;8.00;99.90
22337;DHT22;14992;50.844;4.418;2023-04-03T09:52:22;8.20;99.90
22337;DHT22;14992;50.844;4.418;2023-04-03T09:54:52;8.40;99.90
22337;DHT22;14992;50.844;4.418;2023-04-03T09:57:22;8.60;99.90
22337;DHT22;14992;50.844;4.418;2023-04-03T10:00:02;8.60;99.90
22337;DHT22;14992;50.844;4.418;2023-04-03T10:02:36;8.60;99.90
22337;DHT22;14992;50.844;4.418;2023-04-03T10:05:27;8.70;99.90
22337;DHT22;14992;50.844;4.418;2023-04-03T10:08:27;8.90;99.90
22337;DHT22;14992;50.844;4.418;2023-04-03T10:11:11;8.90;99.90
22337;DHT22;14992;50.844;4.418;2023-04-03T10:13:53;8.80;99.90
22337;DHT22;14992;50.844;4.418;2023-04-03T10:16:31;9.00;99.90
22337;DHT22;14992;50.844;4.418;2023-04-03T10:19:24;9.20;99.90
22337;DHT22;14992;50.844;4.418;2023-04-03T10:21:59;9.10;99.90
22337;DHT22;14992;50.844;4.418;2023-04-03T10:24:36;9.00;99.90
22337;DHT22;14992;50.844;4.418;2023-04-03T10:27:11;9.10;99.90
22337;DHT22;14992;50.844;4.418;2023-04-03T10:29:50;9.30;99.90
22337;DHT22;14992;50.844;4.418;2023-04-03T10:32:31;9.30;99.90
22337;DHT22;14992;50.844;4.418;2023-04-03T10:35:08;9.20;99.90
22337;DHT22;14992;50.844;4.418;2023-04-03T10:37:52;9.10;99.90
22337;DHT22;14992;50.844;4.418;2023-04-03T10:40:30;9.20;99.90
22337;DHT22;14992;50.844;4.418;2023-04-03T10:43:04;9.20;99.90
22337;DHT22;14992;50.844;4.418;2023-04-03T10:45:49;9.40;99.90
22337;DHT22;14992;50.844;4.418;2023-04-03T10:48:28;9.50;99.90
22337;DHT22;14992;50.844;4.418;2023-04-03T10:51:07;9.40;99.90
22337;DHT22;14992;50.844;4.418;2023-04-03T10:53:40;9.40;99.90
22337;DHT22;14992;50.844;4.418;2023-04-03T10:56:17;9.60;99.90
22337;DHT22;14992;50.844;4.418;2023-04-03T10:58:50;9.60;99.90
22337;DHT22;14992;50.844;4.418;2023-04-03T11:01:25;9.60;99.90
22337;DHT22;14992;50.844;4.418;2023-04-03T11:03:58;9.60;99.90
22337;DHT22;14992;50.844;4.418;2023-04-03T11:06:32;9.70;99.40
22337;DHT22;14992;50.844;4.418;2023-04-03T11:09:10;9.70;98.50
22337;DHT22;14992;50.844;4.418;2023-04-03T11:11:41;9.70;97.70
22337;DHT22;14992;50.844;4.418;2023-04-03T11:14:16;9.60;97.30
22337;DHT22;14992;50.844;4.418;2023-04-03T11:16:52;9.50;96.10
22337;DHT22;14992;50.844;4.418;2023-04-03T11:19:32;9.60;96.20
22337;DHT22;14992;50.844;4.418;2023-04-03T11:22:08;9.70;96.90
22337;DHT22;14992;50.844;4.418;2023-04-03T11:24:41;9.80;96.90
22337;DHT22;14992;50.844;4.418;2023-04-03T11:27:17;9.80;96.80
22337;DHT22;14992;50.844;4.418;2023-04-03T11:29:51;9.90;97.50
22337;DHT22;14992;50.844;4.418;2023-04-03T11:32:34;10.00;97.90
22337;DHT22;14992;50.844;4.418;2023-04-03T11:35:08;10.00;96.70
22337;DHT22;14992;50.844;4.418;2023-04-03T11:37:40;10.00;95.80
22337;DHT22;14992;50.844;4.418;2023-04-03T11:40:22;10.20;96.60
22337;DHT22;14992;50.844;4.418;2023-04-03T11:42:54;10.20;98.30
22337;DHT22;14992;50.844;4.418;2023-04-03T11:45:31;10.20;97.90
22337;DHT22;14992;50.844;4.418;2023-04-03T11:48:03;10.10;98.00
22337;DHT22;14992;50.844;4.418;2023-04-03T11:50:51;10.30;96.90
22337;DHT22;14992;50.844;4.418;2023-04-03T11:53:32;10.20;93.90
22337;DHT22;14992;50.844;4.418;2023-04-03T11:56:31;10.30;92.70
22337;DHT22;14992;50.844;4.418;2023-04-03T11:59:22;10.20;92.80
22337;DHT22;14992;50.844;4.418;2023-04-03T12:01:52;10.10;95.80
22337;DHT22;14992;50.844;4.418;2023-04-03T12:04:25;10.20;94.10
22337;DHT22;14992;50.844;4.418;2023-04-03T12:13:01;10.40;90.50
22337;DHT22;14992;50.844;4.418;2023-04-03T12:15:50;10.40;91.90
22337;DHT22;14992;50.844;4.418;2023-04-03T12:18:41;10.50;91.90
22337;DHT22;14992;50.844;4.418;2023-04-03T12:21:13;10.40;87.50
22337;DHT22;14992;50.844;4.418;2023-04-03T12:24:03;10.20;87.50
22337;DHT22;14992;50.844;4.418;2023-04-03T12:26:38;10.30;87.50
22337;DHT22;14992;50.844;4.418;2023-04-03T12:29:20;10.30;83.20
22337;DHT22;14992;50.844;4.418;2023-04-03T12:32:03;10.20;79.40
22337;DHT22;14992;50.844;4.418;2023-04-03T12:34:49;10.20;78.40
22337;DHT22;14992;50.844;4.418;2023-04-03T12:37:39;10.10;79.90
22337;DHT22;14992;50.844;4.418;2023-04-03T12:40:16;10.30;79.80
22337;DHT22;14992;50.844;4.418;2023-04-03T12:45:52;10.40;81.80
22337;DHT22;14992;50.844;4.418;2023-04-03T12:48:27;10.50;80.60
22337;DHT22;14992;50.844;4.418;2023-04-03T12:50:58;10.50;78.70
22337;DHT22;14992;50.844;4.418;2023-04-03T12:53:32;10.50;78.10
22337;DHT22;14992;50.844;4.418;2023-04-03T12:56:20;10.40;77.90
22337;DHT22;14992;50.844;4.418;2023-04-03T12:58:51;10.50;75.20
22337;DHT22;14992;50.844;4.418;2023-04-03T13:01:23;10.60;74.50
22337;DHT22;14992;50.844;4.418;2023-04-03T13:03:54;10.60;73.50
22337;DHT22;14992;50.844;4.418;2023-04-03T13:06:27;10.60;72.50
22337;DHT22;14992;50.844;4.418;2023-04-03T13:08:59;10.30;74.20
22337;DHT22;14992;50.844;4.418;2023-04-03T13:11:30;10.40;76.40
22337;DHT22;14992;50.844;4.418;2023-04-03T13:14:01;10.50;73.20
22337;DHT22;14992;50.844;4.418;2023-04-03T13:16:33;10.60;72.90
22337;DHT22;14992;50.844;4.418;2023-04-03T13:19:02;10.60;73.00
22337;DHT22;14992;50.844;4.418;2023-04-03T13:21:32;10.80;71.80
22337;DHT22;14992;50.844;4.418;2023-04-03T13:24:04;10.80;70.30
22337;DHT22;14992;50.844;4.418;2023-04-03T13:26:42;10.80;70.70
22337;DHT22;14992;50.844;4.418;2023-04-03T13:29:23;10.80;67.20
22337;DHT22;14992;50.844;4.418;2023-04-03T13:31:59;10.80;66.10
22337;DHT22;14992;50.844;4.418;2023-04-03T13:34:36;10.70;67.40
22337;DHT22;14992;50.844;4.418;2023-04-03T13:37:05;10.70;69.20
22337;DHT22;14992;50.844;4.418;2023-04-03T13:39:37;10.70;69.90
22337;DHT22;14992;50.844;4.418;2023-04-03T13:42:20;10.60;65.20
22337;DHT22;14992;50.844;4.418;2023-04-03T13:45:11;10.70;65.50
22337;DHT22;14992;50.844;4.418;2023-04-03T13:47:45;10.60;67.70
22337;DHT22;14992;50.844;4.418;2023-04-03T13:50:18;10.60;69.30
22337;DHT22;14992;50.844;4.418;2023-04-03T13:52:49;10.70;69.30
22337;DHT22;14992;50.844;4.418;2023-04-03T13:55:23;10.80;70.90
22337;DHT22;14992;50.844;4.418;2023-04-03T13:58:21;10.90;71.20
22337;DHT22;14992;50.844;4.418;2023-04-03T14:00:52;11.00;71.30
22337;DHT22;14992;50.844;4.418;2023-04-03T14:03:24;11.10;70.80
22337;DHT22;14992;50.844;4.418;2023-04-03T14:05:53;11.00;71.10
22337;DHT22;14992;50.844;4.418;2023-04-03T14:08:22;10.90;70.90
22337;DHT22;14992;50.844;4.418;2023-04-03T14:11:13;10.90;71.20
22337;DHT22;14992;50.844;4.418;2023-04-03T14:13:45;10.60;68.60
22337;DHT22;14992;50.844;4.418;2023-04-03T14:16:15;10.60;70.90
22337;DHT22;14992;50.844;4.418;2023-04-03T14:18:45;10.60;71.40
22337;DHT22;14992;50.844;4.418;2023-04-03T14:21:17;10.70;71.90
22337;DHT22;14992;50.844;4.418;2023-04-03T14:23:47;10.70;70.40
22337;DHT22;14992;50.844;4.418;2023-04-03T14:26:19;10.70;69.50
22337;DHT22;14992;50.844;4.418;2023-04-03T14:28:51;10.70;69.10
22337;DHT22;14992;50.844;4.418;2023-04-03T14:31:21;10.70;69.30
22337;DHT22;14992;50.844;4.418;2023-04-03T14:33:51;10.70;70.20
22337;DHT22;14992;50.844;4.418;2023-04-03T14:36:21;10.80;70.60
22337;DHT22;14992;50.844;4.418;2023-04-03T14:38:52;10.70;69.50
22337;DHT22;14992;50.844;4.418;2023-04-03T14:41:24;10.60;69.00
22337;DHT22;14992;50.844;4.418;2023-04-03T14:43:59;10.50;70.40
22337;DHT22;14992;50.844;4.418;2023-04-03T14:47:12;10.70;71.00
22337;DHT22;14992;50.844;4.418;2023-04-03T14:49:58;10.80;70.30
22337;DHT22;14992;50.844;4.418;2023-04-03T14:52:30;10.90;69.80
22337;DHT22;14992;50.844;4.418;2023-04-03T14:55:02;10.90;69.90
22337;DHT22;14992;50.844;4.418;2023-04-03T14:57:33;11.00;70.50
22337;DHT22;14992;50.844;4.418;2023-04-03T15:00:03;11.10;70.20
22337;DHT22;14992;50.844;4.418;2023-04-03T15:02:37;11.00;68.90
22337;DHT22;14992;50.844;4.418;2023-04-03T15:05:09;10.90;69.20
22337;DHT22;14992;50.844;4.418;2023-04-03T15:07:41;10.80;67.60
22337;DHT22;14992;50.844;4.418;2023-04-03T15:10:18;10.70;67.10
22337;DHT22;14992;50.844;4.418;2023-04-03T15:12:49;10.70;66.60
22337;DHT22;14992;50.844;4.418;2023-04-03T15:15:19;10.80;66.00
22337;DHT22;14992;50.844;4.418;2023-04-03T15:17:51;10.80;66.00
22337;DHT22;14992;50.844;4.418;2023-04-03T15:20:24;10.70;65.10
22337;DHT22;14992;50.844;4.418;2023-04-03T15:22:54;10.70;64.00
22337;DHT22;14992;50.844;4.418;2023-04-03T15:25:24;10.70;65.20
22337;DHT22;14992;50.844;4.418;2023-04-03T15:27:56;10.80;66.00
22337;DHT22;14992;50.844;4.418;2023-04-03T15:30:25;10.90;65.20
22337;DHT22;14992;50.844;4.418;2023-04-03T15:32:54;11.00;65.40
22337;DHT22;14992;50.844;4.418;2023-04-03T15:35:23;11.00;64.10
22337;DHT22;14992;50.844;4.418;2023-04-03T15:37:53;11.00;64.10
22337;DHT22;14992;50.844;4.418;2023-04-03T15:40:22;11.00;64.70
22337;DHT22;14992;50.844;4.418;2023-04-03T15:42:51;11.00;65.30
22337;DHT22;14992;50.844;4.418;2023-04-03T15:45:22;11.00;65.40
22337;DHT22;14992;50.844;4.418;2023-04-03T15:47:51;11.00;66.70
22337;DHT22;14992;50.844;4.418;2023-04-03T15:50:21;10.90;65.30
22337;DHT22;14992;50.844;4.418;2023-04-03T15:52:52;10.90;66.80
22337;DHT22;14992;50.844;4.418;2023-04-03T15:55:23;11.10;67.40
22337;DHT22;14992;50.844;4.418;2023-04-03T15:57:52;11.10;68.30
22337;DHT22;14992;50.844;4.418;2023-04-03T16:00:24;11.20;68.60
22337;DHT22;14992;50.844;4.418;2023-04-03T16:02:56;11.20;70.50
22337;DHT22;14992;50.844;4.418;2023-04-03T16:05:26;11.30;70.40
22337;DHT22;14992;50.844;4.418;2023-04-03T16:07:55;11.30;70.70
22337;DHT22;14992;50.844;4.418;2023-04-03T16:10:24;11.20;69.90
22337;DHT22;14992;50.844;4.418;2023-04-03T16:12:52;11.20;69.90
22337;DHT22;14992;50.844;4.418;2023-04-03T16:15:23;11.20;70.10
22337;DHT22;14992;50.844;4.418;2023-04-03T16:17:54;11.30;71.50
22337;DHT22;14992;50.844;4.418;2023-04-03T16:20:23;11.20;71.40
22337;DHT22;14992;50.844;4.418;2023-04-03T16:22:52;11.10;72.60
22337;DHT22;14992;50.844;4.418;2023-04-03T16:25:21;10.90;73.70
22337;DHT22;14992;50.844;4.418;2023-04-03T16:27:50;10.90;74.30
22337;DHT22;14992;50.844;4.418;2023-04-03T16:30:19;11.00;75.00